Alex, Louisiana
Current Conditions -  °F | °C
As of 2:53 PM on Sunday 23 Nov 2014 (Local Time) from KAEX Reporting Station
Clear Clear  
Wind Chill: 72°   Ceiling: Unl
Heat Index: 72°   Visibility: 10mi
Dew Point: 60°   Wind: 14mph
Humidity: 66%   Direction: 200°SSW
Pressure: 29.51"   Gusts: NA
Location:  31.2081°N, 92.3683°W
Report Text: KAEX 232053Z 20012KT 10SM CLR 22/16 A2951 RMK AO2 RAE24 SLP996 P0000 60000 T02220156 55014
Loading
Personal Weather Stations






























Interactive Weather Map New forecast layout! Learn more

10-Day Weather Forecast

Advertisements
Track Severe Weather on mobile